Beechwood, Michigan
Current Conditions -  °F | °C
As of 6:15 PM on Monday 20 Oct 2014 (Local Time) from KLNL Reporting Station
Overcast Overcast  
Wind Chill: 40°   Ceiling: 3200
Heat Index: 44°   Visibility: 10mi
Dew Point: 41°   Wind: 6mph
Humidity: 90%   Direction: 340°NNW
Pressure: 30.01"   Gusts: NA
Location:  46.2163°N, 88.7676°W
Report Text: KLNL 202315Z AUTO 34005KT 10SM SCT013 BKN032 OVC046 07/05 A3001 RMK AO2 T00650049
Loading
Personal Weather Stations






























Interactive Weather Map
Tropical Storm Tracking
New forecast layout! Learn more

10-Day Weather Forecast

Advertisements
Track Severe Weather on mobile